Time;durP1;ratioP1;P1;durP2;ratioP2;P2;SDS_P1;SDS_P2;PMS_P1;PMS_P2;Temp;Humidity;BMP_temperature;BMP_pressure;BME280_temperature;BME280_humidity;BME280_pressure;Samples;Min_cycle;Max_cycle;Signal;HPM_P1;HPM_P2
2022/12/11 00:00:36;;;;;;;5.23;1.90;;;;;;;;;;5144589;27;20031;-62
2022/12/11 00:03:03;;;;;;;1.50;1.10;;;;;;;;;;5144588;27;20516;-62
2022/12/11 00:05:34;;;;;;;1.70;0.67;;;;;;;;;;5144046;27;20034;-63
2022/12/11 00:08:06;;;;;;;3.67;1.70;;;;;;;;;;5149353;27;20476;-62
2022/12/11 00:10:42;;;;;;;2.07;0.90;;;;;;;;;;5142524;27;20062;-62
2022/12/11 00:13:12;;;;;;;5.73;0.77;;;;;;;;;;5135670;27;20358;-62
2022/12/11 00:15:42;;;;;;;0.90;0.77;;;;;;;;;;5136091;27;20424;-62
2022/12/11 00:18:15;;;;;;;2.27;1.20;;;;;;;;;;5135808;27;20019;-62
2022/12/11 00:20:43;;;;;;;1.00;0.63;;;;;;;;;;5130493;27;20042;-62
2022/12/11 00:23:22;;;;;;;1.93;0.80;;;;;;;;;;5130082;27;20084;-63
2022/12/11 00:25:50;;;;;;;0.50;0.50;;;;;;;;;;5109871;28;20034;-62
2022/12/11 00:28:22;;;;;;;2.37;0.80;;;;;;;;;;5110065;28;20389;-61
2022/12/11 00:30:50;;;;;;;2.70;1.10;;;;;;;;;;5115160;28;20076;-62
2022/12/11 00:33:17;;;;;;;0.40;0.37;;;;;;;;;;5114919;28;20028;-62
2022/12/11 00:35:48;;;;;;;1.00;0.60;;;;;;;;;;5118089;27;20050;-63
2022/12/11 00:38:20;;;;;;;1.83;0.93;;;;;;;;;;5135506;27;20063;-62
2022/12/11 00:40:53;;;;;;;1.53;0.80;;;;;;;;;;5134524;27;20067;-62
2022/12/11 00:43:20;;;;;;;1.40;1.07;;;;;;;;;;5130197;27;20072;-62
2022/12/11 00:45:47;;;;;;;9.37;1.87;;;;;;;;;;5130230;27;20030;-62
2022/12/11 00:48:15;;;;;;;2.57;1.23;;;;;;;;;;5129624;27;20046;-62
2022/12/11 00:50:42;;;;;;;1.10;0.73;;;;;;;;;;5129805;27;20027;-63
2022/12/11 00:53:09;;;;;;;0.80;0.50;;;;;;;;;;5135455;27;20055;-62
2022/12/11 00:55:38;;;;;;;1.70;1.17;;;;;;;;;;5135494;27;20469;-62
2022/12/11 00:58:05;;;;;;;2.27;1.50;;;;;;;;;;5134968;27;20030;-62
2022/12/11 01:00:42;;;;;;;1.30;1.00;;;;;;;;;;5134663;27;20020;-62
2022/12/11 01:03:13;;;;;;;1.57;1.00;;;;;;;;;;5134084;27;20430;-62
2022/12/11 01:05:41;;;;;;;3.50;1.27;;;;;;;;;;5129780;27;20473;-62
2022/12/11 01:08:08;;;;;;;1.30;0.90;;;;;;;;;;5129312;27;20041;-62
2022/12/11 01:10:44;;;;;;;4.93;1.30;;;;;;;;;;5129747;27;20026;-62
2022/12/11 01:13:14;;;;;;;1.93;1.10;;;;;;;;;;5129642;27;20039;-63
2022/12/11 01:15:44;;;;;;;0.73;0.73;;;;;;;;;;5134716;27;20019;-63
2022/12/11 01:18:13;;;;;;;1.87;1.17;;;;;;;;;;5134342;27;20027;-62
2022/12/11 01:20:44;;;;;;;2.37;1.53;;;;;;;;;;5135044;27;20152;-61
2022/12/11 01:23:23;;;;;;;1.43;0.87;;;;;;;;;;5133733;27;20030;-60
2022/12/11 01:25:53;;;;;;;5.37;0.90;;;;;;;;;;5133555;27;20418;-61
2022/12/11 01:28:25;;;;;;;0.87;0.80;;;;;;;;;;5128600;27;20149;-61
2022/12/11 01:30:52;;;;;;;2.27;1.60;;;;;;;;;;5129540;27;20027;-61
2022/12/11 01:33:18;;;;;;;2.50;1.63;;;;;;;;;;5129347;27;20027;-60
2022/12/11 01:35:45;;;;;;;8.83;1.90;;;;;;;;;;5130161;27;20061;-60
2022/12/11 01:38:12;;;;;;;6.83;2.40;;;;;;;;;;5134257;27;20062;-60
2022/12/11 01:40:45;;;;;;;13.57;2.40;;;;;;;;;;5134458;27;20473;-60
2022/12/11 01:43:12;;;;;;;2.53;1.63;;;;;;;;;;5134327;27;20068;-60
2022/12/11 01:45:43;;;;;;;2.30;1.57;;;;;;;;;;5134445;27;20023;-60
2022/12/11 01:48:12;;;;;;;2.57;1.60;;;;;;;;;;5132671;27;20011;-61
2022/12/11 01:50:45;;;;;;;1.60;1.20;;;;;;;;;;5124332;27;20422;-60
2022/12/11 01:53:13;;;;;;;2.87;1.60;;;;;;;;;;5128900;27;20051;-60
2022/12/11 01:55:41;;;;;;;9.13;2.30;;;;;;;;;;5128736;27;20027;-60
2022/12/11 01:58:08;;;;;;;4.33;2.00;;;;;;;;;;5129882;27;20019;-60
2022/12/11 02:00:36;;;;;;;3.30;1.60;;;;;;;;;;5133947;27;20062;-60
2022/12/11 02:03:03;;;;;;;2.50;1.40;;;;;;;;;;5134219;27;20030;-60
2022/12/11 02:05:30;;;;;;;3.90;1.63;;;;;;;;;;5134092;27;20019;-60
2022/12/11 02:07:59;;;;;;;1.50;1.10;;;;;;;;;;5133827;27;20023;-60
2022/12/11 02:10:32;;;;;;;2.33;1.60;;;;;;;;;;5112137;28;20373;-60
2022/12/11 02:13:01;;;;;;;8.37;2.30;;;;;;;;;;5124170;27;20084;-61
2022/12/11 02:15:36;;;;;;;9.83;2.33;;;;;;;;;;5128644;27;20026;-60
2022/12/11 02:18:15;;;;;;;2.60;1.50;;;;;;;;;;5128629;27;20019;-60
2022/12/11 02:20:48;;;;;;;4.93;2.10;;;;;;;;;;5129915;27;20385;-60
2022/12/11 02:23:33;;;;;;;3.40;1.97;;;;;;;;;;5133781;27;20473;-60
2022/12/11 02:25:59;;;;;;;;;;;;;;;;;;5113383;28;20500;-60
2022/12/11 02:28:32;;;;;;;3.30;1.57;;;;;;;;;;5113171;28;19921;-60
2022/12/11 02:31:02;;;;;;;2.70;1.67;;;;;;;;;;5112685;28;20549;-60
2022/12/11 02:33:49;;;;;;;3.27;1.80;;;;;;;;;;5124270;27;20024;-60
2022/12/11 02:36:17;;;;;;;4.67;3.07;;;;;;;;;;5128014;27;20124;-60
2022/12/11 02:38:49;;;;;;;4.17;2.70;;;;;;;;;;5128155;27;20031;-60
2022/12/11 02:41:16;;;;;;;2.97;2.13;;;;;;;;;;5127432;27;20538;-60
2022/12/11 02:43:44;;;;;;;9.57;3.17;;;;;;;;;;5131435;27;20023;-60
2022/12/11 02:46:11;;;;;;;4.57;2.63;;;;;;;;;;5133228;27;20023;-60
2022/12/11 02:48:40;;;;;;;5.90;2.83;;;;;;;;;;5133556;27;20381;-60
2022/12/11 02:51:08;;;;;;;2.53;1.77;;;;;;;;;;5133400;27;20380;-60
2022/12/11 02:53:38;;;;;;;4.10;2.67;;;;;;;;;;5133477;27;20019;-60
2022/12/11 02:56:12;;;;;;;2.70;2.10;;;;;;;;;;5128849;27;20739;-60
2022/12/11 02:58:42;;;;;;;5.32;3.38;;;;;;;;;;5127947;27;20042;-60
2022/12/11 03:01:10;;;;;;;7.43;3.33;;;;;;;;;;5127855;28;20087;-60
2022/12/11 03:03:37;;;;;;;5.00;2.77;;;;;;;;;;5128024;27;20079;-59
2022/12/11 03:06:04;;;;;;;4.03;2.50;;;;;;;;;;5131370;28;20050;-59
2022/12/11 03:08:31;;;;;;;13.73;5.50;;;;;;;;;;5132874;28;20049;-59
2022/12/11 03:10:58;;;;;;;2.80;1.93;;;;;;;;;;5132869;28;20416;-60
2022/12/11 03:13:25;;;;;;;5.47;3.10;;;;;;;;;;5133062;28;20105;-60
2022/12/11 03:15:52;;;;;;;31.33;2.93;;;;;;;;;;5133270;28;20023;-59
2022/12/11 03:18:30;;;;;;;4.00;2.97;;;;;;;;;;5129275;28;20032;-59
2022/12/11 03:21:08;;;;;;;6.47;2.23;;;;;;;;;;5127543;28;20019;-59
2022/12/11 03:23:43;;;;;;;12.83;2.43;;;;;;;;;;5127652;28;20392;-60
2022/12/11 03:26:11;;;;;;;4.70;2.60;;;;;;;;;;5127704;28;20038;-60
2022/12/11 03:28:44;;;;;;;4.50;2.67;;;;;;;;;;5131726;28;20031;-59
2022/12/11 03:31:14;;;;;;;3.17;2.37;;;;;;;;;;5132506;28;20076;-59
2022/12/11 03:33:43;;;;;;;10.03;4.83;;;;;;;;;;5132258;28;20034;-59
2022/12/11 03:36:21;;;;;;;14.10;4.93;;;;;;;;;;5133042;28;20020;-59
2022/12/11 03:39:03;;;;;;;4.43;3.23;;;;;;;;;;5132847;28;20465;-59
2022/12/11 03:41:31;;;;;;;9.20;3.50;;;;;;;;;;5126862;28;20085;-59
2022/12/11 03:43:59;;;;;;;5.20;2.50;;;;;;;;;;5127444;28;20119;-60
2022/12/11 03:46:31;;;;;;;5.77;2.23;;;;;;;;;;5130324;27;20308;-59
2022/12/11 03:49:03;;;;;;;4.30;2.33;;;;;;;;;;5131663;27;20051;-60
2022/12/11 03:51:32;;;;;;;5.53;2.53;;;;;;;;;;5136218;27;20026;-60
2022/12/11 03:54:00;;;;;;;5.50;2.60;;;;;;;;;;5136560;27;20065;-59
2022/12/11 03:56:27;;;;;;;4.33;2.30;;;;;;;;;;5136288;27;20042;-59
2022/12/11 03:58:54;;;;;;;4.37;2.23;;;;;;;;;;5136567;27;20032;-59
2022/12/11 04:01:21;;;;;;;3.90;2.27;;;;;;;;;;5135897;27;20019;-59
2022/12/11 04:03:48;;;;;;;2.33;1.83;;;;;;;;;;5129683;27;20028;-61
2022/12/11 04:06:18;;;;;;;2.17;1.57;;;;;;;;;;5130232;27;20046;-59
2022/12/11 04:08:56;;;;;;;;;;;;;;;;;;;;;
2022/12/11 04:11:39;;;;;;;6.77;3.90;;;;;;;;;;5130590;27;20031;-59
2022/12/11 04:16:52;;;;;;;4.27;2.07;;;;;;;;;;5135871;27;20484;-59
2022/12/11 04:24:51;;;;;;;1.65;1.10;;;;;;;;;;5131736;27;20058;-59
2022/12/11 04:28:04;;;;;;;3.17;1.37;;;;;;;;;;5130838;27;20144;-60
2022/12/11 04:30:07;;;;;;;1.93;1.53;;;;;;;;;;5119360;27;20102;-59
2022/12/11 04:32:34;;;;;;;3.63;2.03;;;;;;;;;;5130628;27;20028;-59
2022/12/11 04:35:01;;;;;;;3.23;2.17;;;;;;;;;;5134132;27;20019;-59
2022/12/11 04:37:28;;;;;;;2.23;1.70;;;;;;;;;;5135369;27;20015;-59
2022/12/11 04:39:55;;;;;;;2.30;1.63;;;;;;;;;;5135564;27;20131;-59
2022/12/11 04:42:22;;;;;;;2.13;1.73;;;;;;;;;;5135522;27;20027;-59
2022/12/11 04:44:49;;;;;;;9.50;2.07;;;;;;;;;;5135861;27;20027;-59
2022/12/11 04:47:16;;;;;;;1.90;1.50;;;;;;;;;;5131142;27;20419;-59
2022/12/11 04:49:43;;;;;;;2.43;1.90;;;;;;;;;;5130349;27;20019;-59
2022/12/11 04:52:10;;;;;;;10.47;2.23;;;;;;;;;;5130016;27;20029;-59
2022/12/11 04:54:37;;;;;;;16.77;2.27;;;;;;;;;;5130254;27;20482;-59
2022/12/11 04:57:04;;;;;;;3.50;1.70;;;;;;;;;;5133606;27;20381;-59
2022/12/11 04:59:31;;;;;;;9.87;1.90;;;;;;;;;;5134882;27;20039;-59
2022/12/11 05:01:58;;;;;;;5.03;2.37;;;;;;;;;;5135104;27;20050;-59
2022/12/11 05:04:25;;;;;;;2.13;1.40;;;;;;;;;;5135406;27;20469;-59
2022/12/11 05:06:52;;;;;;;2.97;1.80;;;;;;;;;;5134096;27;20023;-59
2022/12/11 05:09:19;;;;;;;3.30;1.43;;;;;;;;;;5131218;27;20023;-59
2022/12/11 05:11:45;;;;;;;3.60;2.07;;;;;;;;;;5129912;27;20046;-60
2022/12/11 05:14:12;;;;;;;1.67;1.30;;;;;;;;;;5129588;27;20047;-59
2022/12/11 05:16:41;;;;;;;2.63;1.50;;;;;;;;;;5129368;27;20020;-59
2022/12/11 05:19:08;;;;;;;1.63;1.10;;;;;;;;;;5132903;27;20050;-59
2022/12/11 05:21:35;;;;;;;5.80;1.17;;;;;;;;;;5134856;27;20489;-60
2022/12/11 05:24:02;;;;;;;2.30;1.43;;;;;;;;;;5134539;27;20050;-59
2022/12/11 05:26:29;;;;;;;3.43;1.97;;;;;;;;;;5135001;27;20027;-59
2022/12/11 05:28:55;;;;;;;2.20;1.60;;;;;;;;;;5134581;27;20027;-59
2022/12/11 05:31:26;;;;;;;6.13;2.87;;;;;;;;;;5131395;27;20035;-59
2022/12/11 05:33:53;;;;;;;3.40;1.80;;;;;;;;;;5129184;27;20034;-59
2022/12/11 05:36:24;;;;;;;3.23;1.73;;;;;;;;;;5110871;27;20366;-59
2022/12/11 05:38:51;;;;;;;3.60;1.77;;;;;;;;;;5128516;27;20043;-59
2022/12/11 05:41:19;;;;;;;1.77;1.37;;;;;;;;;;5132280;27;20430;-59
2022/12/11 05:43:46;;;;;;;4.27;1.73;;;;;;;;;;5134556;27;20019;-59
2022/12/11 05:46:17;;;;;;;1.50;1.20;;;;;;;;;;5125519;27;20024;-59
2022/12/11 05:48:45;;;;;;;9.47;1.80;;;;;;;;;;5130950;27;20031;-59
2022/12/11 05:51:12;;;;;;;3.13;2.40;;;;;;;;;;5133921;27;20066;-59
2022/12/11 05:53:40;;;;;;;1.87;1.47;;;;;;;;;;5130429;27;20423;-59
2022/12/11 05:56:10;;;;;;;2.50;1.33;;;;;;;;;;5129146;27;20023;-59
2022/12/11 05:58:37;;;;;;;2.57;1.63;;;;;;;;;;5128925;27;20357;-60
2022/12/11 06:01:07;;;;;;;6.43;2.40;;;;;;;;;;5128541;27;20015;-59
2022/12/11 06:03:33;;;;;;;2.63;1.77;;;;;;;;;;5131691;27;20465;-59
2022/12/11 06:06:04;;;;;;;1.20;0.90;;;;;;;;;;5133799;27;20469;-59
2022/12/11 06:08:31;;;;;;;0.93;0.63;;;;;;;;;;5133610;27;20019;-59
2022/12/11 06:10:58;;;;;;;2.87;1.93;;;;;;;;;;5134226;27;20026;-59
2022/12/11 06:13:26;;;;;;;1.87;1.00;;;;;;;;;;5133687;27;20384;-59
2022/12/11 06:15:52;;;;;;;1.60;1.00;;;;;;;;;;5130081;27;20062;-59
2022/12/11 06:18:19;;;;;;;2.63;1.10;;;;;;;;;;5128617;27;20019;-59
2022/12/11 06:20:46;;;;;;;1.33;0.97;;;;;;;;;;5128235;27;20035;-59
2022/12/11 06:23:19;;;;;;;5.53;1.00;;;;;;;;;;5128438;27;20071;-59
2022/12/11 06:25:46;;;;;;;3.23;2.03;;;;;;;;;;5131623;27;20137;-59
2022/12/11 06:28:13;;;;;;;3.27;1.17;;;;;;;;;;5133744;27;20026;-59
2022/12/11 06:30:40;;;;;;;4.97;1.77;;;;;;;;;;5133670;27;20030;-59
2022/12/11 06:33:07;;;;;;;5.47;2.57;;;;;;;;;;5133515;27;20031;-59
2022/12/11 06:35:34;;;;;;;2.77;1.90;;;;;;;;;;5133094;27;20042;-59
2022/12/11 06:38:01;;;;;;;3.23;2.20;;;;;;;;;;5129837;27;20100;-59
2022/12/11 06:40:27;;;;;;;1.27;0.90;;;;;;;;;;5128079;27;20521;-59
2022/12/11 06:42:54;;;;;;;2.20;1.40;;;;;;;;;;5128034;27;20054;-59
2022/12/11 06:45:21;;;;;;;2.03;1.47;;;;;;;;;;5128396;27;20515;-59
2022/12/11 06:47:48;;;;;;;2.80;2.03;;;;;;;;;;5130973;27;20030;-59
2022/12/11 06:50:14;;;;;;;2.70;1.87;;;;;;;;;;5133381;27;20247;-59
2022/12/11 06:52:41;;;;;;;3.27;1.37;;;;;;;;;;5132829;27;20023;-59
2022/12/11 06:55:08;;;;;;;3.93;1.57;;;;;;;;;;5133456;27;20255;-59
2022/12/11 06:57:35;;;;;;;2.30;1.50;;;;;;;;;;5133259;27;20251;-59
2022/12/11 07:00:02;;;;;;;3.90;1.83;;;;;;;;;;5129596;28;20861;-59
2022/12/11 07:02:29;;;;;;;3.40;2.03;;;;;;;;;;5127908;27;20023;-58
2022/12/11 07:04:56;;;;;;;0.93;0.90;;;;;;;;;;5128145;27;20267;-59
2022/12/11 07:07:23;;;;;;;2.07;1.57;;;;;;;;;;5127749;27;20275;-59
2022/12/11 07:09:49;;;;;;;4.93;2.00;;;;;;;;;;5130328;27;20307;-59
2022/12/11 07:12:16;;;;;;;5.47;2.13;;;;;;;;;;5133166;28;20294;-59
2022/12/11 07:14:43;;;;;;;2.37;1.60;;;;;;;;;;5133037;27;20259;-59
2022/12/11 07:17:10;;;;;;;3.03;1.57;;;;;;;;;;5133083;27;20259;-59
2022/12/11 07:19:36;;;;;;;2.07;1.73;;;;;;;;;;5132754;27;20378;-59
2022/12/11 07:22:03;;;;;;;1.67;1.30;;;;;;;;;;5133404;27;20670;-59
2022/12/11 07:24:30;;;;;;;1.97;1.40;;;;;;;;;;5131645;27;20346;-59
2022/12/11 07:26:57;;;;;;;2.90;1.13;;;;;;;;;;5131999;27;20255;-59
2022/12/11 07:29:23;;;;;;;2.53;1.90;;;;;;;;;;5131974;27;20259;-59
2022/12/11 07:31:50;;;;;;;2.90;1.77;;;;;;;;;;5134278;27;20243;-59
2022/12/11 07:34:17;;;;;;;4.50;3.23;;;;;;;;;;5136878;27;20272;-59
2022/12/11 07:36:44;;;;;;;2.43;1.50;;;;;;;;;;5136814;27;20262;-59
2022/12/11 07:39:11;;;;;;;2.60;1.93;;;;;;;;;;5136927;27;20302;-59
2022/12/11 07:41:38;;;;;;;2.83;2.03;;;;;;;;;;5137044;27;20583;-59
2022/12/11 07:44:05;;;;;;;4.57;2.80;;;;;;;;;;5134016;27;20375;-58
2022/12/11 07:46:33;;;;;;;3.60;2.10;;;;;;;;;;5131367;27;20267;-58
2022/12/11 07:49:00;;;;;;;3.40;2.70;;;;;;;;;;5131402;27;20255;-58
2022/12/11 07:51:28;;;;;;;2.00;1.57;;;;;;;;;;5131511;27;20263;-59
2022/12/11 07:53:56;;;;;;;2.63;1.63;;;;;;;;;;5133726;27;20722;-59
2022/12/11 07:56:23;;;;;;;2.50;1.33;;;;;;;;;;5136594;27;20337;-59
2022/12/11 07:58:50;;;;;;;3.23;2.00;;;;;;;;;;5136144;27;20720;-59
2022/12/11 08:01:18;;;;;;;3.03;2.47;;;;;;;;;;5136479;27;20259;-59
2022/12/11 08:03:45;;;;;;;2.43;2.00;;;;;;;;;;5136691;27;20644;-59
2022/12/11 08:06:12;;;;;;;1.43;1.17;;;;;;;;;;5133664;27;20255;-59
2022/12/11 08:08:40;;;;;;;4.30;1.27;;;;;;;;;;5131040;27;20271;-58
2022/12/11 08:11:08;;;;;;;3.03;2.17;;;;;;;;;;5130409;27;20271;-59
2022/12/11 08:13:34;;;;;;;1.87;1.50;;;;;;;;;;5131069;27;20355;-59
2022/12/11 08:16:05;;;;;;;3.63;2.33;;;;;;;;;;5133331;27;20256;-58
2022/12/11 08:18:33;;;;;;;1.90;1.13;;;;;;;;;;5136128;27;20277;-58
2022/12/11 08:20:59;;;;;;;2.60;1.93;;;;;;;;;;5135664;27;20255;-58
2022/12/11 08:23:26;;;;;;;10.47;2.57;;;;;;;;;;5135980;27;20248;-59
2022/12/11 08:25:53;;;;;;;5.07;2.77;;;;;;;;;;5135890;27;20332;-58
2022/12/11 08:28:19;;;;;;;3.03;2.20;;;;;;;;;;5133410;27;20749;-58
2022/12/11 08:30:46;;;;;;;2.03;1.80;;;;;;;;;;5130154;27;20342;-59
2022/12/11 08:33:13;;;;;;;6.87;2.50;;;;;;;;;;5130795;27;20251;-59
2022/12/11 08:35:39;;;;;;;3.13;2.27;;;;;;;;;;5130356;27;20326;-59
2022/12/11 08:38:06;;;;;;;2.43;1.60;;;;;;;;;;5132472;27;20351;-59
2022/12/11 08:40:33;;;;;;;3.20;1.80;;;;;;;;;;5135385;27;20287;-59
2022/12/11 08:42:59;;;;;;;4.37;2.90;;;;;;;;;;5135741;27;20295;-59
2022/12/11 08:45:26;;;;;;;1.90;1.57;;;;;;;;;;5135734;27;20309;-59
2022/12/11 08:47:53;;;;;;;5.13;1.83;;;;;;;;;;5135803;27;20606;-60
2022/12/11 08:50:20;;;;;;;2.50;1.87;;;;;;;;;;5132812;27;20271;-60
2022/12/11 08:52:46;;;;;;;3.20;2.33;;;;;;;;;;5130123;27;20330;-60
2022/12/11 08:55:13;;;;;;;3.57;2.40;;;;;;;;;;5130153;27;20649;-61
2022/12/11 08:57:40;;;;;;;2.23;1.70;;;;;;;;;;5130003;27;20255;-59
2022/12/11 09:00:08;;;;;;;2.10;1.50;;;;;;;;;;5131498;27;20279;-59
2022/12/11 09:02:35;;;;;;;1.67;1.47;;;;;;;;;;5134957;27;20618;-59
2022/12/11 09:05:01;;;;;;;1.60;1.27;;;;;;;;;;5116945;27;20266;-59
2022/12/11 09:07:28;;;;;;;2.07;1.67;;;;;;;;;;5135323;27;20733;-60
2022/12/11 09:09:55;;;;;;;2.90;2.17;;;;;;;;;;5134800;27;20338;-59
2022/12/11 09:12:21;;;;;;;2.47;1.87;;;;;;;;;;5132787;27;20346;-60
2022/12/11 09:14:48;;;;;;;1.53;1.10;;;;;;;;;;5129112;27;20332;-60
2022/12/11 09:17:15;;;;;;;3.03;1.97;;;;;;;;;;5129769;27;20260;-60
2022/12/11 09:19:41;;;;;;;4.53;1.87;;;;;;;;;;5129461;27;20283;-59
2022/12/11 09:22:10;;;;;;;3.30;2.33;;;;;;;;;;5130922;27;20745;-59
2022/12/11 09:24:37;;;;;;;2.13;1.43;;;;;;;;;;5134525;27;20784;-59
2022/12/11 09:27:04;;;;;;;6.97;2.33;;;;;;;;;;5134882;27;20262;-59
2022/12/11 09:29:31;;;;;;;2.97;1.60;;;;;;;;;;5134915;27;20298;-59
2022/12/11 09:31:58;;;;;;;1.80;1.37;;;;;;;;;;5134213;27;20338;-59
2022/12/11 09:34:25;;;;;;;4.03;2.43;;;;;;;;;;5132519;27;20788;-59
2022/12/11 09:36:51;;;;;;;3.33;1.93;;;;;;;;;;5129124;27;20589;-59
2022/12/11 09:39:18;;;;;;;1.27;1.10;;;;;;;;;;5128634;27;20286;-60
2022/12/11 09:41:45;;;;;;;2.17;1.73;;;;;;;;;;5129298;27;20264;-59
2022/12/11 09:44:30;;;;;;;5.53;2.17;;;;;;;;;;5129627;27;20255;-60
2022/12/11 09:46:57;;;;;;;3.28;2.38;;;;;;;;;;5134506;27;20247;-59
2022/12/11 09:49:39;;;;;;;2.67;2.03;;;;;;;;;;5134195;27;20102;-59
2022/12/11 09:52:15;;;;;;;26.90;3.13;;;;;;;;;;5134374;27;20251;-60
2022/12/11 09:54:46;;;;;;;2.07;1.50;;;;;;;;;;5134360;27;20606;-59
2022/12/11 09:57:12;;;;;;;1.80;1.43;;;;;;;;;;5130274;27;20663;-59
2022/12/11 10:00:10;;;;;;;2.57;1.83;;;;;;;;;;5128718;27;20641;-60
2022/12/11 10:02:56;;;;;;;2.63;2.17;;;;;;;;;;5108151;27;20267;-60
2022/12/11 10:05:29;;;;;;;5.57;2.60;;;;;;;;;;5127415;27;20267;-60
2022/12/11 10:08:16;;;;;;;2.10;1.70;;;;;;;;;;5133289;27;20753;-59
2022/12/11 10:10:53;;;;;;;1.83;1.40;;;;;;;;;;5133936;27;20279;-59
2022/12/11 10:13:22;;;;;;;3.67;1.77;;;;;;;;;;5133263;27;20259;-59
2022/12/11 10:15:52;;;;;;;2.90;2.00;;;;;;;;;;5115572;27;20263;-59
2022/12/11 10:18:21;;;;;;;5.17;1.90;;;;;;;;;;5132358;27;20346;-59
2022/12/11 10:20:49;;;;;;;3.40;2.20;;;;;;;;;;5128161;27;20263;-60
2022/12/11 10:23:29;;;;;;;9.93;1.60;;;;;;;;;;5128219;27;20255;-60
2022/12/11 10:26:03;;;;;;;1.27;1.10;;;;;;;;;;5128282;27;20251;-59
2022/12/11 10:28:30;;;;;;;24.00;2.30;;;;;;;;;;5129490;27;20583;-59
2022/12/11 10:31:02;;;;;;;1.70;1.50;;;;;;;;;;5133812;27;20373;-59
2022/12/11 10:33:45;;;;;;;2.87;1.90;;;;;;;;;;5133709;27;20262;-59
2022/12/11 10:36:13;;;;;;;3.73;2.27;;;;;;;;;;5133245;27;20266;-59
2022/12/11 10:38:43;;;;;;;1.47;1.27;;;;;;;;;;5133327;27;20271;-60
2022/12/11 10:41:12;;;;;;;2.13;1.73;;;;;;;;;;5130784;27;20646;-59
2022/12/11 10:43:41;;;;;;;2.87;2.23;;;;;;;;;;5128087;27;20258;-59
2022/12/11 10:46:15;;;;;;;2.13;1.57;;;;;;;;;;5109185;28;20599;-60
2022/12/11 10:48:46;;;;;;;1.80;1.35;;;;;;;;;;5128034;27;20279;-60
2022/12/11 10:51:12;;;;;;;2.90;2.27;;;;;;;;;;5130669;27;20493;-59
2022/12/11 10:53:42;;;;;;;3.47;1.97;;;;;;;;;;5133209;27;20587;-60
2022/12/11 10:56:09;;;;;;;2.70;1.80;;;;;;;;;;5133137;27;20252;-60
2022/12/11 10:58:40;;;;;;;2.23;1.83;;;;;;;;;;5132957;27;20275;-59
2022/12/11 11:01:08;;;;;;;1.13;0.97;;;;;;;;;;5132890;28;20617;-59
2022/12/11 11:03:36;;;;;;;1.17;1.00;;;;;;;;;;5130306;28;20745;-59
2022/12/11 11:06:05;;;;;;;5.57;2.17;;;;;;;;;;5127893;28;20259;-60
2022/12/11 11:08:43;;;;;;;2.37;1.93;;;;;;;;;;5127437;28;20685;-59
2022/12/11 11:11:35;;;;;;;3.13;2.67;;;;;;;;;;5127200;27;20275;-59
2022/12/11 11:14:07;;;;;;;3.70;2.37;;;;;;;;;;5127106;27;20289;-59
2022/12/11 11:16:37;;;;;;;1.07;0.97;;;;;;;;;;5133519;27;20681;-59
2022/12/11 11:19:04;;;;;;;1.70;1.47;;;;;;;;;;5133210;27;20332;-60
2022/12/11 11:21:32;;;;;;;2.93;2.03;;;;;;;;;;5132543;27;20271;-59
2022/12/11 11:23:59;;;;;;;1.13;1.03;;;;;;;;;;5133078;28;20259;-59
2022/12/11 11:26:26;;;;;;;1.47;1.30;;;;;;;;;;5128166;27;20690;-60
2022/12/11 11:28:56;;;;;;;1.47;1.33;;;;;;;;;;5127429;28;20256;-59
2022/12/11 11:31:31;;;;;;;2.97;2.00;;;;;;;;;;5127544;27;20595;-59
2022/12/11 11:34:02;;;;;;;2.88;2.00;;;;;;;;;;5127682;27;20733;-60
2022/12/11 11:36:29;;;;;;;2.00;1.57;;;;;;;;;;5131691;28;20420;-59
2022/12/11 11:39:06;;;;;;;3.67;2.30;;;;;;;;;;5132955;28;20267;-59
2022/12/11 11:41:40;;;;;;;1.50;1.30;;;;;;;;;;5133018;28;20251;-59
2022/12/11 11:44:10;;;;;;;1.85;1.58;;;;;;;;;;5132890;28;20252;-59
2022/12/11 11:46:36;;;;;;;1.63;1.23;;;;;;;;;;5132388;28;20030;-59
2022/12/11 11:49:21;;;;;;;3.23;1.93;;;;;;;;;;5126924;28;20362;-59
2022/12/11 11:52:08;;;;;;;1.85;1.48;;;;;;;;;;5127535;28;20248;-59
2022/12/11 11:54:37;;;;;;;2.77;2.07;;;;;;;;;;5127342;27;20423;-60
2022/12/11 11:57:12;;;;;;;1.73;1.53;;;;;;;;;;5128592;27;20318;-59
2022/12/11 11:59:48;;;;;;;3.00;1.90;;;;;;;;;;5132381;28;20370;-60
2022/12/11 12:02:16;;;;;;;1.50;1.40;;;;;;;;;;5132470;28;20028;-59
2022/12/11 12:04:42;;;;;;;3.17;1.97;;;;;;;;;;5131994;28;20266;-60
2022/12/11 12:07:30;;;;;;;6.20;2.67;;;;;;;;;;5134988;27;20712;-59
2022/12/11 12:10:15;;;;;;;2.57;1.77;;;;;;;;;;5133493;27;20258;-59
2022/12/11 12:13:00;;;;;;;3.92;1.60;;;;;;;;;;5130466;27;20811;-59
2022/12/11 12:15:56;;;;;;;2.35;1.63;;;;;;;;;;5130841;27;20031;-59
2022/12/11 12:18:41;;;;;;;4.15;1.73;;;;;;;;;;5109163;27;20034;-59
2022/12/11 12:21:14;;;;;;;0.57;0.55;;;;;;;;;;5136072;27;20059;-59
2022/12/11 12:23:52;;;;;;;2.77;2.07;;;;;;;;;;5135914;27;20020;-59
2022/12/11 12:26:22;;;;;;;2.03;1.50;;;;;;;;;;5135915;27;21628;-59
2022/12/11 12:28:58;;;;;;;1.60;1.37;;;;;;;;;;5136086;27;20267;-59
2022/12/11 12:31:25;;;;;;;2.13;1.50;;;;;;;;;;5134485;27;20263;-59
2022/12/11 12:34:01;;;;;;;2.37;2.00;;;;;;;;;;5130511;27;20287;-59
2022/12/11 12:36:36;;;;;;;2.10;1.90;;;;;;;;;;5130026;27;20267;-60
2022/12/11 12:39:11;;;;;;;2.30;1.77;;;;;;;;;;5130147;27;20287;-59
2022/12/11 12:41:53;;;;;;;0.57;0.57;;;;;;;;;;5132068;27;20019;-59
2022/12/11 12:44:24;;;;;;;1.57;1.23;;;;;;;;;;5135557;27;20031;-59
2022/12/11 12:47:03;;;;;;;2.97;1.53;;;;;;;;;;5135350;27;20258;-59
2022/12/11 12:49:34;;;;;;;3.70;2.13;;;;;;;;;;5135645;27;20609;-60
2022/12/11 12:52:01;;;;;;;1.73;1.60;;;;;;;;;;5135499;27;20745;-60
2022/12/11 12:54:29;;;;;;;1.93;1.53;;;;;;;;;;5132088;27;20252;-59
2022/12/11 12:56:57;;;;;;;3.13;2.33;;;;;;;;;;5130061;27;20258;-59
2022/12/11 13:14:32;;;;;;;5.73;2.63;;;;;;;;;;5148964;27;20363;-57
2022/12/11 13:17:25;;;;;;;2.73;1.90;;;;;;;;;;5033520;27;2129009;-58
2022/12/11 13:20:09;;;;;;;3.37;2.07;;;;;;;;;;5065887;28;20028;-58
2022/12/11 13:22:47;;;;;;;2.57;2.10;;;;;;;;;;5104514;28;20769;-57
2022/12/11 13:25:21;;;;;;;5.07;1.90;;;;;;;;;;5106445;28;20257;-58
2022/12/11 13:27:48;;;;;;;10.68;2.95;;;;;;;;;;5109747;28;20348;-57
2022/12/11 13:30:15;;;;;;;4.03;2.13;;;;;;;;;;5109007;28;20043;-58
2022/12/11 13:32:43;;;;;;;1.50;1.33;;;;;;;;;;5109640;28;20343;-58
2022/12/11 13:35:16;;;;;;;3.70;2.00;;;;;;;;;;5109377;28;20258;-57
2022/12/11 13:37:46;;;;;;;2.60;1.90;;;;;;;;;;5106225;28;20256;-58
2022/12/11 13:40:21;;;;;;;3.90;2.77;;;;;;;;;;5103863;28;20317;-57
2022/12/11 13:42:52;;;;;;;3.72;2.67;;;;;;;;;;5103842;28;20284;-58
2022/12/11 13:45:22;;;;;;;4.33;2.97;;;;;;;;;;5104070;28;20032;-58
2022/12/11 13:47:49;;;;;;;4.07;3.03;;;;;;;;;;5107143;28;20348;-57
2022/12/11 13:50:19;;;;;;;2.07;1.73;;;;;;;;;;5109054;28;20281;-57
2022/12/11 13:52:56;;;;;;;5.43;3.60;;;;;;;;;;5109535;28;20769;-58
2022/12/11 13:55:28;;;;;;;5.90;3.50;;;;;;;;;;5109168;28;20286;-58
2022/12/11 13:57:55;;;;;;;4.90;3.53;;;;;;;;;;5108625;28;20343;-58
2022/12/11 14:00:28;;;;;;;4.63;3.47;;;;;;;;;;5104343;28;20275;-57
2022/12/11 14:02:56;;;;;;;7.73;4.20;;;;;;;;;;5103477;28;20284;-58
2022/12/11 14:05:23;;;;;;;5.70;4.13;;;;;;;;;;5103734;28;20300;-58
2022/12/11 14:07:55;;;;;;;3.77;3.00;;;;;;;;;;5103487;28;20256;-58
2022/12/11 14:10:26;;;;;;;6.77;4.47;;;;;;;;;;5107167;28;20027;-58
2022/12/11 14:13:04;;;;;;;5.17;4.07;;;;;;;;;;5108945;28;20035;-57
2022/12/11 14:15:32;;;;;;;7.10;5.30;;;;;;;;;;5095286;28;20050;-58
2022/12/11 14:17:59;;;;;;;5.87;4.80;;;;;;;;;;5095129;28;20417;-58
2022/12/11 14:20:30;;;;;;;14.00;6.23;;;;;;;;;;5094834;28;20520;-57
2022/12/11 14:23:26;;;;;;;11.07;6.63;;;;;;;;;;5089690;28;20032;-58
2022/12/11 14:26:02;;;;;;;7.35;4.97;;;;;;;;;;5064447;28;20129;-57
2022/12/11 14:28:35;;;;;;;7.10;5.20;;;;;;;;;;5089055;28;20023;-58
2022/12/11 14:31:02;;;;;;;7.37;4.60;;;;;;;;;;5090408;28;20028;-58
2022/12/11 14:33:40;;;;;;;5.20;3.70;;;;;;;;;;5095110;28;20050;-58
2022/12/11 14:36:07;;;;;;;5.50;4.07;;;;;;;;;;5094880;28;20036;-58
2022/12/11 14:38:38;;;;;;;4.47;3.13;;;;;;;;;;5094609;28;20522;-58
2022/12/11 14:41:08;;;;;;;10.87;4.47;;;;;;;;;;5094601;28;20020;-58
2022/12/11 14:43:37;;;;;;;5.47;3.80;;;;;;;;;;5092462;28;20128;-57
2022/12/11 14:46:06;;;;;;;5.40;3.47;;;;;;;;;;5089173;28;20436;-58
2022/12/11 14:48:36;;;;;;;3.10;2.80;;;;;;;;;;5089216;28;20078;-58
2022/12/11 14:51:05;;;;;;;4.27;3.07;;;;;;;;;;5088789;28;20066;-58
2022/12/11 14:53:35;;;;;;;5.47;2.67;;;;;;;;;;5090877;28;20035;-58
2022/12/11 14:56:04;;;;;;;4.03;2.40;;;;;;;;;;5094570;28;20031;-58
2022/12/11 14:58:32;;;;;;;4.33;2.60;;;;;;;;;;5094628;28;20400;-58
2022/12/11 15:01:03;;;;;;;6.07;2.87;;;;;;;;;;5094093;28;20594;-58
2022/12/11 15:03:37;;;;;;;2.47;1.77;;;;;;;;;;5094241;28;20024;-59
2022/12/11 15:06:23;;;;;;;2.00;1.53;;;;;;;;;;5091120;28;20074;-59
2022/12/11 15:08:49;;;;;;;3.03;2.07;;;;;;;;;;5088987;28;20024;-58
2022/12/11 15:11:17;;;;;;;2.50;1.60;;;;;;;;;;5088488;28;20031;-59
2022/12/11 15:13:54;;;;;;;3.23;2.43;;;;;;;;;;5088031;28;20032;-58
2022/12/11 15:16:22;;;;;;;3.53;2.10;;;;;;;;;;5091595;28;20036;-59
2022/12/11 15:18:50;;;;;;;5.40;2.73;;;;;;;;;;5094070;28;20024;-58
2022/12/11 15:21:17;;;;;;;2.10;1.37;;;;;;;;;;5094062;28;20103;-58
2022/12/11 15:23:51;;;;;;;3.77;1.60;;;;;;;;;;5094050;28;20028;-59